ADDS METAR Data

Data at: 0849 UTC 27 Jul 2017

METAR for:EGLF (Farnborough Arpt, --, UK)
Text:EGLF 270820Z 24011KT 9999 FEW020 15/13 Q1008
Temperature: 15.0°C ( 59°F)
Dewpoint: 13.0°C ( 55°F) [RH = 88%]
Pressure (altimeter):29.76 inches Hg (1008.0 mb)
Winds:from the WSW (240 degrees) at 13 MPH (11 knots; 5.7 m/s)
Visibility:6 or more sm (10+ km)
Ceiling:at least 12,000 feet AGL
Clouds: few clouds at 2000 feet AGL

TAF for:EGLF (Farnborough Arpt, --, UK) issued at 0800 UTC 27 Jul 2017
Text:TAF EGLF 270800Z 2709/2718 24012KT 9999 SCT030
Forecast period:0900 to 1800 UTC 27 July 2017
Forecast type:FROM: standard forecast or significant change
Winds:from the WSW (240 degrees) at 14 MPH (12 knots; 6.2 m/s)
Visibility:6 or more sm (10+ km)
Ceiling:at least 12,000 feet AGL
Clouds: scattered clouds at 3000 feet AGL
Text:TEMPO 2710/2718 25017G27KT 8000 SHRA
Forecast period:1000 to 1800 UTC 27 July 2017
Forecast type:TEMPORARY: The following changes expected for less than half the time period
Winds:from the WSW (250 degrees) at 20 MPH (17 knots; 8.7 m/s) gusting to 31 MPH (27 knots; 13.9 m/s)
Visibility: 5 sm ( 8 km)
Clouds:missing
Weather:SHRA (rain showers)
Text:PROB30
Forecast period:1300 to 1800 UTC 27 July 2017
Forecast type:TEMPORARY: The following changes expected for less than half the time period
Visibility: 2.49 sm ( 4.01 km)
Clouds:missing
Weather:+SHRA (heavy rain showers)

METAR for:EGUB (Benson(RAF), --, UK)
Text:EGUB 270750Z 21008KT 9999 FEW014 BKN040 15/12 Q1007 BLU TEMPO SCT020 WHT
Temperature: 15.0°C ( 59°F)
Dewpoint: 12.0°C ( 54°F) [RH = 82%]
Pressure (altimeter):29.73 inches Hg (1007.0 mb)
Winds:from the SSW (210 degrees) at 9 MPH (8 knots; 4.1 m/s)
Visibility:6 or more sm (10+ km)
Ceiling:4000 feet AGL
Clouds: few clouds at 1400 feet AGL, broken clouds at 4000 feet AGL

TAF for:EGUB (Benson(RAF), --, UK) issued at 0748 UTC 27 Jul 2017
Text:TAF EGUB 270748Z 2709/2718 23012KT 9999 SCT045
Forecast period:0900 to 1800 UTC 27 July 2017
Forecast type:FROM: standard forecast or significant change
Winds:from the SW (230 degrees) at 14 MPH (12 knots; 6.2 m/s)
Visibility:6 or more sm (10+ km)
Ceiling:at least 12,000 feet AGL
Clouds: scattered clouds at 4500 feet AGL
Text:TEMPO 2709/2712 -SHRA SCT022
Forecast period:0900 to 1200 UTC 27 July 2017
Forecast type:TEMPORARY: The following changes expected for less than half the time period
Ceiling:at least 12,000 feet AGL
Clouds: scattered clouds at 2200 feet AGL
Weather:-SHRA (light rain showers)
Text:TEMPO 2712/2718 6000 SHRA BKN022CB
Forecast period:1200 to 1800 UTC 27 July 2017
Forecast type:TEMPORARY: The following changes expected for less than half the time period
Visibility: 4 sm ( 6 km)
Ceiling:2200 feet AGL
Clouds: broken clouds at 2200 feet AGL
Weather:SHRA (rain showers)
Text:PROB30
Forecast period:1200 to 1800 UTC 27 July 2017
Forecast type:TEMPORARY: The following changes expected for less than half the time period
Winds:from the SW (230 degrees) at 17 MPH (15 knots; 7.7 m/s) gusting to 29 MPH (25 knots; 12.9 m/s)
Visibility: 1.86 sm ( 2.99 km)
Clouds:missing
Weather:+SHRA (heavy rain showers)

METAR for:EGVO (Odiham(RAF), --, UK)
Text:EGVO 270750Z 23009KT 9999 FEW012 BKN045 15/12 Q1008 BLU NOSIG
Temperature: 15.0°C ( 59°F)
Dewpoint: 12.0°C ( 54°F) [RH = 82%]
Pressure (altimeter):29.76 inches Hg (1008.0 mb)
Winds:from the SW (230 degrees) at 10 MPH (9 knots; 4.6 m/s)
Visibility:6 or more sm (10+ km)
Ceiling:4500 feet AGL
Clouds: few clouds at 1200 feet AGL, broken clouds at 4500 feet AGL

TAF for:EGVO (Odiham(RAF), --, UK) issued at 0726 UTC 27 Jul 2017
Text:TAF EGVO 270726Z 2709/2721 24010KT 9999 SCT030
Forecast period:0900 to 2100 UTC 27 July 2017
Forecast type:FROM: standard forecast or significant change
Winds:from the WSW (240 degrees) at 12 MPH (10 knots; 5.1 m/s)
Visibility:6 or more sm (10+ km)
Ceiling:at least 12,000 feet AGL
Clouds: scattered clouds at 3000 feet AGL
Text:PROB40
Forecast period:0900 to 2100 UTC 27 July 2017
Forecast type:TEMPORARY: The following changes expected for less than half the time period
Visibility: 4 sm ( 7 km)
Ceiling:2400 feet AGL
Clouds: broken clouds at 2400 feet AGL
Weather:SHRA (rain showers)
Text:TEMPO 2709/2721 7000 SHRA BKN024TCU
Forecast period:1200 to 1800 UTC 27 July 2017
Forecast type:TEMPORARY: The following changes expected for less than half the time period
Winds:from the WSW (250 degrees) at 17 MPH (15 knots; 7.7 m/s) gusting to 29 MPH (25 knots; 12.9 m/s)
Visibility: 2.49 sm ( 4.01 km)
Clouds:missing
Weather:SHRA (rain showers)

METAR for:EGTK (Oxford Arpt, --, UK)
Text:EGTK 270820Z 22010KT 9999 SCT013 SCT015 15/12 Q1006
Temperature: 15.0°C ( 59°F)
Dewpoint: 12.0°C ( 54°F) [RH = 82%]
Pressure (altimeter):29.70 inches Hg (1006.0 mb)
Winds:from the SW (220 degrees) at 12 MPH (10 knots; 5.1 m/s)
Visibility:6 or more sm (10+ km)
Ceiling:at least 12,000 feet AGL
Clouds: scattered clouds at 1300 feet AGL, scattered clouds at 1500 feet AGL

TAF for:EGTK (Oxford Arpt, --, UK) issued at 0758 UTC 27 Jul 2017
Text:TAF EGTK 270758Z 2709/2718 23008KT 9999 FEW025
Forecast period:0900 to 1800 UTC 27 July 2017
Forecast type:FROM: standard forecast or significant change
Winds:from the SW (230 degrees) at 9 MPH (8 knots; 4.1 m/s)
Visibility:6 or more sm (10+ km)
Ceiling:at least 12,000 feet AGL
Clouds: few clouds at 2500 feet AGL
Text:TEMPO 2710/2718 7000 SHRA
Forecast period:1000 to 1800 UTC 27 July 2017
Forecast type:TEMPORARY: The following changes expected for less than half the time period
Visibility: 4 sm ( 7 km)
Clouds:missing
Weather:SHRA (rain showers)
Text:PROB30
Forecast period:1200 to 1800 UTC 27 July 2017
Forecast type:TEMPORARY: The following changes expected for less than half the time period
Winds:from the WSW (240 degrees) at 17 MPH (15 knots; 7.7 m/s) gusting to 29 MPH (25 knots; 12.9 m/s)
Visibility: 2.49 sm ( 4.01 km)
Clouds:missing
Weather:+SHRA (heavy rain showers)

METAR for:EGHH (Bournemouth Intl, --, UK)
Text:EGHH 270820Z 24012KT 9999 FEW021 SCT049 17/13 Q1007
Temperature: 17.0°C ( 63°F)
Dewpoint: 13.0°C ( 55°F) [RH = 77%]
Pressure (altimeter):29.73 inches Hg (1007.0 mb)
Winds:from the WSW (240 degrees) at 14 MPH (12 knots; 6.2 m/s)
Visibility:6 or more sm (10+ km)
Ceiling:at least 12,000 feet AGL
Clouds: few clouds at 2100 feet AGL, scattered clouds at 4900 feet AGL

TAF for:EGHH (Bournemouth Intl, --, UK) issued at 0758 UTC 27 Jul 2017
Text:TAF EGHH 270758Z 2709/2718 24009KT 9999 SCT045
Forecast period:0900 to 1800 UTC 27 July 2017
Forecast type:FROM: standard forecast or significant change
Winds:from the WSW (240 degrees) at 10 MPH (9 knots; 4.6 m/s)
Visibility:6 or more sm (10+ km)
Ceiling:at least 12,000 feet AGL
Clouds: scattered clouds at 4500 feet AGL
Text:TEMPO 2709/2718 7000 SHRA
Forecast period:0900 to 1800 UTC 27 July 2017
Forecast type:TEMPORARY: The following changes expected for less than half the time period
Visibility: 4 sm ( 7 km)
Clouds:missing
Weather:SHRA (rain showers)
Text:PROB30
Forecast period:0900 to 1800 UTC 27 July 2017
Forecast type:TEMPORARY: The following changes expected for less than half the time period
Winds:from the WSW (240 degrees) at 18 MPH (16 knots; 8.2 m/s) gusting to 30 MPH (26 knots; 13.4 m/s)
Clouds:missing

METAR for:
Text:No data found

TAF for:
Text:No data found